Satsuma, Alabama
Current Conditions -  °F | °C
As of 8:53 PM on Tuesday 25 Nov 2014 (Local Time) from KBFM Reporting Station
Few Clouds Few Clouds  
Wind Chill: 53°   Ceiling: Unl
Heat Index: 53°   Visibility: 10mi
Dew Point: 35°   Wind: 16mph
Humidity: 50%   Direction: 320°NW
Pressure: 30.16"   Gusts: NA
Location:  30.85°N, 88.06°W
Report Text: KBFM 260253Z 32014KT 10SM FEW100 12/02 A3016 RMK AO2 SLP211 T01170017 51007
Loading
Personal Weather Stations






























Interactive Weather Map New forecast layout! Learn more

10-Day Weather Forecast

Advertisements
Track Severe Weather on mobile